Time;durP1;ratioP1;P1;durP2;ratioP2;P2;SDS_P1;SDS_P2;PMS_P1;PMS_P2;Temp;Humidity;BMP_temperature;BMP_pressure;BME280_temperature;BME280_humidity;BME280_pressure;Samples;Min_cycle;Max_cycle;Signal;HPM_P1;HPM_P2
2021/11/28 00:00:50;;;;;;;11.73;4.95;;;1.70;99.90;;;;;;5003863;28;20025;-58
2021/11/28 00:03:18;;;;;;;17.77;7.55;;;1.70;99.90;;;;;;5006339;28;20104;-56
2021/11/28 00:06:04;;;;;;;11.73;5.00;;;1.70;99.90;;;;;;4998818;28;20029;-59
2021/11/28 00:11:20;;;;;;;7.43;3.97;;;1.80;99.90;;;;;;5010651;28;20034;-58
2021/11/28 00:13:49;;;;;;;11.57;4.85;;;1.80;99.90;;;;;;5008666;28;20022;-56
2021/11/28 00:16:16;;;;;;;8.23;3.88;;;1.80;99.90;;;;;;5013624;28;20025;-59
2021/11/28 00:18:42;;;;;;;12.25;4.25;;;1.80;99.90;;;;;;5020573;28;20124;-59
2021/11/28 00:21:08;;;;;;;12.27;5.30;;;1.80;99.90;;;;;;5019298;28;20025;-54
2021/11/28 00:23:33;;;;;;;13.07;4.53;;;1.90;99.90;;;;;;5015558;28;20118;-57
2021/11/28 00:25:59;;;;;;;11.10;4.32;;;1.90;99.90;;;;;;5018973;28;20042;-56
2021/11/28 00:28:26;;;;;;;8.40;4.45;;;1.90;99.90;;;;;;5000332;28;20469;-57
2021/11/28 00:30:52;;;;;;;13.35;5.30;;;1.90;99.90;;;;;;5007855;28;20106;-57
2021/11/28 00:33:18;;;;;;;20.05;6.72;;;1.90;99.90;;;;;;5012184;28;20014;-52
2021/11/28 00:35:46;;;;;;;15.63;3.95;;;2.00;99.90;;;;;;5018714;28;20510;-57
2021/11/28 00:38:11;;;;;;;9.50;4.68;;;2.00;99.90;;;;;;5004892;28;20080;-54
2021/11/28 00:40:37;;;;;;;12.05;4.10;;;2.00;99.90;;;;;;4998736;28;20111;-51
2021/11/28 00:43:03;;;;;;;7.03;3.80;;;2.00;99.90;;;;;;5001368;28;20034;-55
2021/11/28 00:45:29;;;;;;;10.13;4.10;;;2.00;99.90;;;;;;4995966;28;20140;-53
2021/11/28 00:47:54;;;;;;;9.65;4.68;;;2.10;99.90;;;;;;5007587;28;20617;-58
2021/11/28 00:52:50;;;;;;;9.30;4.22;;;2.10;99.90;;;;;;5005450;28;20025;-59
2021/11/28 00:55:18;;;;;;;7.78;4.35;;;2.10;99.90;;;;;;5011671;28;20064;-55
2021/11/28 00:57:44;;;;;;;8.68;4.00;;;2.10;99.90;;;;;;5011940;28;20029;-55
2021/11/28 01:00:10;;;;;;;11.73;4.00;;;2.10;99.90;;;;;;5020059;28;20044;-57
2021/11/28 01:02:37;;;;;;;10.43;4.18;;;2.10;99.90;;;;;;4991234;28;20074;-58
2021/11/28 01:05:05;;;;;;;11.75;4.95;;;2.10;99.90;;;;;;5001810;28;20042;-57
2021/11/28 01:07:32;;;;;;;7.07;3.92;;;2.10;99.90;;;;;;5004256;28;20021;-58
2021/11/28 01:09:58;;;;;;;9.57;3.95;;;2.10;99.90;;;;;;5007418;28;20037;-59
2021/11/28 01:12:24;;;;;;;13.63;5.53;;;2.10;99.90;;;;;;5003455;28;20022;-56
2021/11/28 01:14:51;;;;;;;9.73;3.85;;;2.00;99.90;;;;;;4994149;28;20104;-57
2021/11/28 01:17:18;;;;;;;10.43;4.65;;;2.10;99.90;;;;;;5008229;28;20034;-53
2021/11/28 01:19:43;;;;;;;10.10;4.80;;;2.10;99.90;;;;;;5004411;28;20042;-57
2021/11/28 01:22:11;;;;;;;8.80;4.20;;;2.10;99.90;;;;;;5006099;28;20041;-59
2021/11/28 01:24:37;;;;;;;13.25;4.07;;;2.10;99.90;;;;;;5005649;28;20033;-57
2021/11/28 01:27:07;;;;;;;6.15;3.42;;;2.10;99.90;;;;;;5014749;28;20438;-57
2021/11/28 01:29:33;;;;;;;9.77;3.55;;;2.10;99.90;;;;;;5014766;28;20028;-59
2021/11/28 01:31:58;;;;;;;9.52;3.58;;;2.20;99.90;;;;;;5012924;28;20014;-57
2021/11/28 01:34:25;;;;;;;9.60;3.85;;;2.20;99.90;;;;;;5000639;28;20063;-58
2021/11/28 01:36:52;;;;;;;12.43;4.70;;;2.20;99.90;;;;;;5003780;28;20030;-58
2021/11/28 01:39:18;;;;;;;8.13;3.45;;;2.20;99.90;;;;;;5002930;28;20438;-57
2021/11/28 01:41:44;;;;;;;8.07;4.03;;;2.20;99.90;;;;;;5008089;28;20033;-58
2021/11/28 01:44:10;;;;;;;12.27;4.43;;;2.20;99.90;;;;;;5017917;28;20033;-56
2021/11/28 01:46:36;;;;;;;10.18;4.43;;;2.20;99.90;;;;;;5012890;28;20034;-57
2021/11/28 01:49:02;;;;;;;8.63;3.90;;;2.20;99.90;;;;;;5005480;28;20049;-58
2021/11/28 01:51:28;;;;;;;7.38;3.97;;;2.20;99.90;;;;;;5009809;28;20022;-58
2021/11/28 01:53:55;;;;;;;11.38;5.00;;;2.20;99.90;;;;;;5007914;28;20458;-57
2021/11/28 01:56:22;;;;;;;10.18;3.80;;;2.20;99.90;;;;;;5012259;28;21410;-58
2021/11/28 01:58:48;;;;;;;13.35;5.47;;;2.20;99.90;;;;;;5012756;28;20505;-56
2021/11/28 02:01:16;;;;;;;10.02;4.47;;;2.20;99.90;;;;;;5004435;28;20038;-56
2021/11/28 02:03:43;;;;;;;14.50;4.55;;;2.20;99.90;;;;;;5015780;28;20049;-56
2021/11/28 02:06:12;;;;;;;8.20;4.03;;;2.20;99.90;;;;;;5015549;28;20027;-57
2021/11/28 02:08:38;;;;;;;11.57;4.40;;;2.20;99.90;;;;;;5014027;28;20037;-56
2021/11/28 02:11:04;;;;;;;6.53;4.10;;;2.20;99.90;;;;;;5005188;28;20029;-60
2021/11/28 02:13:30;;;;;;;10.48;4.20;;;2.20;99.90;;;;;;5011307;28;20026;-56
2021/11/28 02:15:56;;;;;;;9.82;4.03;;;2.20;99.90;;;;;;5013197;28;20034;-57
2021/11/28 02:18:24;;;;;;;9.93;4.57;;;2.20;99.90;;;;;;5013860;28;20037;-58
2021/11/28 02:20:55;;;;;;;10.38;4.47;;;2.20;99.90;;;;;;5012458;28;20048;-59
2021/11/28 02:23:22;;;;;;;7.53;3.97;;;2.20;99.90;;;;;;5016207;28;20396;-60
2021/11/28 02:25:49;;;;;;;10.23;4.55;;;2.20;99.90;;;;;;5011480;28;20037;-60
2021/11/28 02:28:15;;;;;;;9.68;4.45;;;2.10;99.90;;;;;;5017021;28;20013;-57
2021/11/28 02:30:41;;;;;;;10.02;5.88;;;2.20;99.90;;;;;;5022003;28;20471;-57
2021/11/28 02:33:06;;;;;;;10.77;3.95;;;2.20;99.90;;;;;;5013677;28;20022;-56
2021/11/28 02:35:34;;;;;;;13.23;5.07;;;2.20;99.90;;;;;;5020682;28;20030;-57
2021/11/28 02:38:02;;;;;;;11.90;4.28;;;2.20;99.90;;;;;;5008389;28;20088;-59
2021/11/28 02:40:28;;;;;;;10.63;4.18;;;2.20;99.90;;;;;;5015830;28;20033;-58
2021/11/28 02:42:55;;;;;;;9.02;4.63;;;2.30;99.90;;;;;;5014056;28;20033;-56
2021/11/28 02:45:24;;;;;;;12.27;4.35;;;2.20;99.90;;;;;;5007463;28;20026;-58
2021/11/28 02:47:51;;;;;;;9.90;4.60;;;2.20;99.90;;;;;;5018837;28;20133;-59
2021/11/28 02:50:20;;;;;;;13.65;4.65;;;2.20;99.90;;;;;;5009038;28;20053;-56
2021/11/28 02:52:53;;;;;;;7.18;4.25;;;2.20;99.90;;;;;;5001750;28;20093;-57
2021/11/28 02:55:36;;;;;;;8.15;4.32;;;2.20;99.90;;;;;;5009470;28;20022;-60
2021/11/28 02:58:02;;;;;;;12.07;4.70;;;2.30;99.90;;;;;;5009956;28;20120;-59
2021/11/28 03:00:31;;;;;;;8.60;4.47;;;2.20;99.90;;;;;;5010069;28;20026;-59
2021/11/28 03:02:56;;;;;;;12.52;4.93;;;2.30;99.90;;;;;;4996540;28;20418;-58
2021/11/28 03:05:22;;;;;;;15.82;5.50;;;2.30;99.90;;;;;;5007208;28;20033;-57
2021/11/28 03:07:48;;;;;;;10.52;4.45;;;2.30;99.90;;;;;;5003935;28;20014;-57
2021/11/28 03:10:31;;;;;;;8.70;4.88;;;2.30;99.90;;;;;;5002868;28;20034;-59
2021/11/28 03:12:57;;;;;;;8.80;5.20;;;2.30;99.90;;;;;;5009919;28;20030;-55
2021/11/28 03:15:24;;;;;;;9.45;4.82;;;2.30;99.90;;;;;;5005733;28;20502;-56
2021/11/28 03:17:50;;;;;;;11.57;4.93;;;2.30;99.90;;;;;;5000992;28;20073;-56
2021/11/28 03:20:16;;;;;;;10.60;4.82;;;2.20;99.90;;;;;;5006670;28;20446;-58
2021/11/28 03:22:50;;;;;;;9.80;4.40;;;2.30;99.90;;;;;;5006183;28;20030;-60
2021/11/28 03:25:21;;;;;;;11.10;4.72;;;2.30;99.90;;;;;;5000367;28;20068;-60
2021/11/28 03:27:47;;;;;;;13.35;5.65;;;2.30;99.90;;;;;;5000521;28;20029;-58
2021/11/28 03:30:17;;;;;;;14.25;5.38;;;2.30;99.90;;;;;;5020408;28;20033;-57
2021/11/28 03:32:42;;;;;;;11.35;5.40;;;2.20;99.90;;;;;;5004564;28;20088;-57
2021/11/28 03:35:09;;;;;;;10.30;4.55;;;2.30;99.90;;;;;;5000474;28;20117;-56
2021/11/28 03:37:35;;;;;;;12.23;5.22;;;2.20;99.90;;;;;;5011640;28;20030;-59
2021/11/28 03:40:04;;;;;;;12.10;4.45;;;2.20;99.90;;;;;;5019945;28;20035;-59
2021/11/28 03:42:30;;;;;;;9.23;4.40;;;2.20;99.90;;;;;;5008800;28;20038;-57
2021/11/28 03:44:55;;;;;;;12.10;4.30;;;2.20;99.90;;;;;;5001540;28;20034;-56
2021/11/28 03:47:21;;;;;;;9.95;4.85;;;2.20;99.90;;;;;;5005258;28;20026;-57
2021/11/28 03:49:46;;;;;;;9.00;4.35;;;2.20;99.90;;;;;;5004057;28;20505;-56
2021/11/28 03:52:12;;;;;;;13.15;5.22;;;2.20;99.90;;;;;;4997166;28;20034;-57
2021/11/28 03:54:38;;;;;;;7.97;4.38;;;2.20;99.90;;;;;;5013472;28;20053;-58
2021/11/28 03:57:04;;;;;;;11.80;5.03;;;2.20;99.90;;;;;;5011215;28;20088;-57
2021/11/28 03:59:30;;;;;;;11.68;4.85;;;2.20;99.90;;;;;;5014836;28;20542;-57
2021/11/28 04:01:56;;;;;;;8.38;5.47;;;2.20;99.90;;;;;;4999716;28;20018;-58
2021/11/28 04:04:22;;;;;;;11.40;5.15;;;2.20;99.90;;;;;;4997094;28;20045;-57
2021/11/28 04:06:48;;;;;;;13.38;4.97;;;2.20;99.90;;;;;;5006320;28;20026;-59
2021/11/28 04:09:14;;;;;;;8.95;4.72;;;2.20;99.90;;;;;;5014641;28;20100;-58
2021/11/28 04:11:39;;;;;;;12.55;5.20;;;2.20;99.90;;;;;;5010594;28;20485;-58
2021/11/28 04:14:05;;;;;;;13.80;5.18;;;2.20;99.90;;;;;;5012609;28;20033;-58
2021/11/28 04:16:32;;;;;;;11.43;4.93;;;2.20;99.90;;;;;;5015385;28;20403;-57
2021/11/28 04:18:59;;;;;;;7.63;4.70;;;2.10;99.90;;;;;;5015887;28;20529;-58
2021/11/28 04:21:25;;;;;;;13.57;4.90;;;2.10;99.90;;;;;;5024486;28;20041;-59
2021/11/28 04:23:51;;;;;;;13.80;5.60;;;2.10;99.90;;;;;;5019922;28;20483;-59
2021/11/28 04:26:16;;;;;;;12.07;5.97;;;2.10;99.90;;;;;;5003847;28;20104;-57
2021/11/28 04:28:42;;;;;;;13.32;5.80;;;2.20;99.90;;;;;;5004956;28;20053;-56
2021/11/28 04:31:08;;;;;;;16.25;5.68;;;2.20;99.90;;;;;;5014936;28;20561;-57
2021/11/28 04:33:33;;;;;;;14.65;5.90;;;2.10;99.90;;;;;;5011981;28;20065;-55
2021/11/28 04:35:59;;;;;;;16.67;5.75;;;2.10;99.90;;;;;;5021486;28;20479;-57
2021/11/28 04:38:25;;;;;;;16.40;6.07;;;2.10;99.90;;;;;;5023364;28;20033;-58
2021/11/28 04:40:50;;;;;;;15.50;6.03;;;2.10;99.90;;;;;;5011115;28;20026;-57
2021/11/28 04:43:16;;;;;;;15.20;5.30;;;2.10;99.90;;;;;;5006103;28;20100;-57
2021/11/28 04:45:42;;;;;;;12.30;5.20;;;2.10;99.90;;;;;;5011878;28;20053;-59
2021/11/28 04:48:07;;;;;;;14.65;6.05;;;2.10;99.90;;;;;;5023997;28;20108;-57
2021/11/28 04:50:34;;;;;;;10.82;6.03;;;2.20;99.90;;;;;;5023051;28;20470;-56
2021/11/28 04:53:01;;;;;;;12.60;6.18;;;2.20;99.90;;;;;;5009311;28;20076;-56
2021/11/28 04:55:26;;;;;;;10.82;5.72;;;2.20;99.90;;;;;;5014544;28;20505;-58
2021/11/28 04:57:52;;;;;;;11.93;5.80;;;2.20;99.90;;;;;;5009997;28;20033;-57
2021/11/28 05:00:23;;;;;;;10.27;5.65;;;2.20;99.90;;;;;;5011277;28;20041;-57
2021/11/28 05:02:49;;;;;;;9.13;5.45;;;2.20;99.90;;;;;;5002277;28;20041;-55
2021/11/28 05:05:14;;;;;;;13.45;5.78;;;2.20;99.90;;;;;;5020462;28;20030;-53
2021/11/28 05:07:40;;;;;;;9.73;5.63;;;2.20;99.90;;;;;;5020685;28;20037;-58
2021/11/28 05:10:07;;;;;;;13.15;5.53;;;2.20;99.90;;;;;;5023668;28;20026;-59
2021/11/28 05:12:33;;;;;;;11.95;5.68;;;2.20;99.90;;;;;;5005791;28;20026;-57
2021/11/28 05:14:58;;;;;;;10.43;5.80;;;2.20;99.90;;;;;;5004070;28;20029;-56
2021/11/28 05:17:24;;;;;;;12.25;5.97;;;2.20;99.90;;;;;;5007584;28;20085;-59
2021/11/28 05:19:51;;;;;;;10.52;6.38;;;2.20;99.90;;;;;;5009314;28;20111;-58
2021/11/28 05:22:17;;;;;;;8.82;5.25;;;2.20;99.90;;;;;;5013830;28;20030;-58
2021/11/28 05:24:44;;;;;;;10.77;5.40;;;2.20;99.90;;;;;;5007979;28;20029;-57
2021/11/28 05:27:10;;;;;;;12.27;5.68;;;2.20;99.90;;;;;;5016180;28;20109;-56
2021/11/28 05:29:36;;;;;;;12.13;5.35;;;2.20;99.90;;;;;;5011929;28;20138;-58
2021/11/28 05:32:02;;;;;;;10.65;6.22;;;2.20;99.90;;;;;;5019473;28;20030;-59
2021/11/28 05:34:28;;;;;;;13.50;5.65;;;2.20;99.90;;;;;;5005737;28;20113;-56
2021/11/28 05:36:53;;;;;;;9.48;5.53;;;2.20;99.90;;;;;;5001727;28;20135;-59
2021/11/28 05:39:19;;;;;;;13.70;5.45;;;2.20;99.90;;;;;;5020088;28;20026;-57
2021/11/28 05:41:45;;;;;;;11.82;5.57;;;2.20;99.90;;;;;;5011391;28;20022;-58
2021/11/28 05:44:10;;;;;;;10.23;5.43;;;2.30;99.90;;;;;;5016908;28;20041;-58
2021/11/28 05:46:36;;;;;;;10.88;6.18;;;2.30;99.90;;;;;;5008160;28;20502;-57
2021/11/28 05:49:02;;;;;;;12.20;5.70;;;2.30;99.90;;;;;;5015819;28;20454;-58
2021/11/28 05:51:28;;;;;;;8.48;5.28;;;2.30;99.90;;;;;;5008355;28;20053;-55
2021/11/28 05:53:53;;;;;;;9.85;5.95;;;2.20;99.90;;;;;;5013134;28;20041;-58
2021/11/28 05:56:19;;;;;;;9.48;6.10;;;2.20;99.90;;;;;;5019899;28;20399;-57
2021/11/28 05:58:45;;;;;;;8.68;5.32;;;2.20;99.90;;;;;;5015341;28;20032;-57
2021/11/28 06:01:10;;;;;;;13.75;6.00;;;2.20;99.90;;;;;;5022199;28;20025;-57
2021/11/28 06:03:36;;;;;;;13.73;6.55;;;2.20;99.90;;;;;;4997724;28;20073;-57
2021/11/28 06:06:02;;;;;;;10.32;5.80;;;2.20;99.90;;;;;;5008474;28;20487;-58
2021/11/28 06:08:28;;;;;;;12.70;5.93;;;2.20;99.90;;;;;;5008904;28;20191;-57
2021/11/28 06:10:53;;;;;;;14.02;5.70;;;2.20;99.90;;;;;;5018648;28;20038;-55
2021/11/28 06:13:19;;;;;;;10.13;5.50;;;2.20;99.90;;;;;;5007759;28;20395;-56
2021/11/28 06:15:45;;;;;;;13.52;6.32;;;2.20;99.90;;;;;;5003642;28;20041;-57
2021/11/28 06:18:10;;;;;;;15.18;6.53;;;2.20;99.90;;;;;;5002942;28;20030;-57
2021/11/28 06:20:37;;;;;;;11.27;5.68;;;2.20;99.90;;;;;;5005254;28;20030;-56
2021/11/28 06:23:03;;;;;;;13.63;6.97;;;2.20;99.90;;;;;;5003727;28;20041;-57
2021/11/28 06:25:29;;;;;;;9.25;6.00;;;2.20;99.90;;;;;;5003073;28;20034;-57
2021/11/28 06:27:55;;;;;;;12.82;5.10;;;2.20;99.90;;;;;;4999619;28;20105;-59
2021/11/28 06:30:22;;;;;;;10.73;6.00;;;2.20;99.90;;;;;;5016552;28;20049;-57
2021/11/28 06:32:48;;;;;;;10.73;6.30;;;2.20;99.90;;;;;;5002879;28;20491;-56
2021/11/28 06:35:14;;;;;;;13.07;5.90;;;2.20;99.90;;;;;;5006521;28;20120;-58
2021/11/28 06:37:40;;;;;;;12.52;6.40;;;2.20;99.90;;;;;;5007348;28;20061;-59
2021/11/28 06:40:06;;;;;;;11.68;5.97;;;2.20;99.90;;;;;;5021438;28;20486;-58
2021/11/28 06:42:32;;;;;;;7.78;5.40;;;2.20;99.90;;;;;;5001046;28;20034;-59
2021/11/28 06:44:58;;;;;;;10.00;5.95;;;2.20;99.90;;;;;;5012372;28;20048;-57
2021/11/28 06:47:23;;;;;;;13.80;6.00;;;2.20;99.90;;;;;;5006771;28;20092;-55
2021/11/28 06:49:49;;;;;;;14.95;6.80;;;2.30;99.90;;;;;;5012205;28;20029;-55
2021/11/28 06:52:14;;;;;;;13.88;6.15;;;2.20;99.90;;;;;;5008864;28;20045;-59
2021/11/28 06:54:40;;;;;;;14.32;6.68;;;2.20;99.90;;;;;;5004536;28;20087;-57
2021/11/28 06:57:06;;;;;;;9.88;5.57;;;2.30;99.90;;;;;;5014576;28;20560;-56
2021/11/28 06:59:32;;;;;;;11.88;6.50;;;2.30;99.90;;;;;;5002766;28;20076;-57
2021/11/28 07:01:58;;;;;;;14.63;7.18;;;2.30;99.90;;;;;;5004225;28;20479;-58
2021/11/28 07:04:24;;;;;;;15.60;6.95;;;2.30;99.90;;;;;;4982413;28;20038;-60
2021/11/28 07:06:50;;;;;;;16.60;8.15;;;2.30;99.90;;;;;;4995166;28;20117;-56
2021/11/28 07:09:16;;;;;;;18.00;12.23;;;2.30;99.90;;;;;;4996824;28;20101;-58
2021/11/28 07:11:41;;;;;;;18.15;7.05;;;2.30;99.90;;;;;;5005897;28;20025;-58
2021/11/28 07:14:07;;;;;;;10.05;6.65;;;2.30;99.90;;;;;;5007954;28;20029;-59
2021/11/28 07:16:33;;;;;;;11.60;6.38;;;2.30;99.90;;;;;;5006081;28;20034;-58
2021/11/28 07:18:58;;;;;;;9.23;5.32;;;2.30;99.90;;;;;;5004740;28;20069;-56
2021/11/28 07:21:24;;;;;;;8.52;5.32;;;2.30;99.90;;;;;;5002505;28;20053;-57
2021/11/28 07:23:50;;;;;;;12.10;7.20;;;2.30;99.90;;;;;;5002955;28;20068;-56
2021/11/28 07:26:17;;;;;;;10.82;6.60;;;2.30;99.90;;;;;;5004268;28;20034;-57
2021/11/28 07:28:43;;;;;;;12.35;7.07;;;2.40;99.90;;;;;;5011105;28;20041;-57
2021/11/28 07:31:10;;;;;;;16.25;7.70;;;2.40;99.90;;;;;;4997050;28;20034;-57
2021/11/28 07:33:37;;;;;;;15.25;8.15;;;2.40;99.90;;;;;;5003132;28;20459;-56
2021/11/28 07:36:04;;;;;;;26.67;11.68;;;2.50;99.90;;;;;;5009472;28;20042;-59
2021/11/28 07:38:30;;;;;;;23.45;9.93;;;2.50;99.90;;;;;;5001922;28;20485;-59
2021/11/28 07:40:56;;;;;;;21.40;8.93;;;2.40;99.90;;;;;;5015440;28;20072;-59
2021/11/28 07:43:22;;;;;;;11.63;6.88;;;2.50;99.90;;;;;;5000513;28;20034;-56
2021/11/28 07:45:47;;;;;;;12.95;7.63;;;2.50;99.90;;;;;;5009566;28;20037;-56
2021/11/28 07:48:13;;;;;;;10.45;6.15;;;2.60;99.90;;;;;;5005058;28;20034;-60
2021/11/28 07:50:39;;;;;;;18.15;7.60;;;2.60;99.90;;;;;;5017993;28;20419;-57
2021/11/28 07:53:04;;;;;;;32.33;11.90;;;2.60;99.90;;;;;;5006177;28;20036;-57
2021/11/28 07:55:30;;;;;;;40.05;12.05;;;2.60;99.90;;;;;;5003727;28;20464;-58
2021/11/28 07:57:57;;;;;;;24.08;8.13;;;2.60;99.90;;;;;;5008834;28;20084;-57
2021/11/28 08:00:22;;;;;;;9.95;5.93;;;2.70;99.90;;;;;;5001867;28;20041;-55
2021/11/28 08:02:48;;;;;;;12.95;6.82;;;2.70;99.90;;;;;;4998914;28;20037;-58
2021/11/28 08:05:14;;;;;;;20.23;8.95;;;2.70;99.90;;;;;;4983047;28;20447;-58
2021/11/28 08:07:39;;;;;;;17.00;9.02;;;2.80;99.90;;;;;;5000037;28;20057;-56
2021/11/28 08:10:06;;;;;;;25.67;10.02;;;2.80;99.90;;;;;;4998128;28;20547;-57
2021/11/28 08:12:32;;;;;;;9.70;5.75;;;2.90;99.90;;;;;;5000846;28;20026;-56
2021/11/28 08:14:57;;;;;;;9.02;5.88;;;2.90;99.90;;;;;;4995662;28;20120;-55
2021/11/28 08:17:23;;;;;;;9.80;5.68;;;2.90;99.90;;;;;;4995797;28;20045;-57
2021/11/28 08:19:48;;;;;;;9.55;5.85;;;2.90;99.90;;;;;;4994335;28;20034;-57
2021/11/28 08:22:14;;;;;;;9.25;5.95;;;2.90;99.90;;;;;;4999719;28;20052;-57
2021/11/28 08:24:40;;;;;;;21.60;6.03;;;2.90;99.90;;;;;;4999124;28;20048;-57
2021/11/28 08:27:05;;;;;;;10.57;5.60;;;2.90;99.90;;;;;;4996666;28;20123;-56
2021/11/28 08:29:32;;;;;;;11.95;6.47;;;2.90;99.90;;;;;;4993115;28;20084;-59
2021/11/28 08:31:58;;;;;;;10.02;5.95;;;2.90;99.90;;;;;;5002105;28;20121;-56
2021/11/28 08:34:24;;;;;;;19.60;9.02;;;2.90;99.90;;;;;;5007328;28;20568;-56
2021/11/28 08:36:49;;;;;;;33.75;16.13;;;3.00;99.90;;;;;;4998659;28;20058;-57
2021/11/28 08:39:15;;;;;;;23.83;11.65;;;3.00;99.90;;;;;;5004054;28;20030;-56
2021/11/28 08:41:42;;;;;;;15.45;7.55;;;3.00;99.90;;;;;;5005742;28;20041;-57
2021/11/28 08:44:08;;;;;;;33.75;13.23;;;3.10;99.90;;;;;;5001364;28;20042;-57
2021/11/28 08:46:34;;;;;;;21.90;10.80;;;3.10;99.90;;;;;;5007330;28;20072;-55
2021/11/28 08:49:01;;;;;;;28.20;13.98;;;3.20;99.90;;;;;;5007769;28;20087;-56
2021/11/28 08:51:27;;;;;;;16.00;8.65;;;3.20;99.90;;;;;;5003683;28;20467;-56
2021/11/28 08:53:58;;;;;;;13.02;7.03;;;3.30;99.90;;;;;;5002247;28;20503;-59
2021/11/28 08:56:23;;;;;;;14.48;6.82;;;3.30;99.90;;;;;;5004370;28;20053;-58
2021/11/28 08:58:50;;;;;;;13.10;7.35;;;3.40;99.90;;;;;;4996482;28;20515;-59
2021/11/28 09:01:17;;;;;;;14.00;8.70;;;3.40;99.90;;;;;;4997861;28;20033;-58
2021/11/28 09:03:42;;;;;;;16.10;8.48;;;3.50;99.90;;;;;;4985138;28;20168;-56
2021/11/28 09:06:08;;;;;;;12.80;7.05;;;3.60;99.90;;;;;;4999117;28;20121;-59
2021/11/28 09:08:37;;;;;;;12.32;6.07;;;3.70;99.90;;;;;;5005493;28;20041;-58
2021/11/28 09:11:04;;;;;;;11.70;6.78;;;3.90;99.90;;;;;;5008772;28;20038;-58
2021/11/28 09:13:34;;;;;;;15.85;6.50;;;3.90;99.90;;;;;;5011510;28;20105;-59
2021/11/28 09:16:00;;;;;;;14.35;6.22;;;4.00;99.90;;;;;;5016369;28;20034;-57
2021/11/28 09:18:50;;;;;;;12.73;7.95;;;4.00;99.90;;;;;;5020547;28;20080;-58
2021/11/28 09:21:15;;;;;;;11.32;6.40;;;4.20;99.90;;;;;;5013470;28;20046;-60
2021/11/28 09:26:30;;;;;;;21.73;10.43;;;4.30;99.90;;;;;;5001948;28;20041;-60
2021/11/28 09:28:59;;;;;;;18.88;9.60;;;4.50;99.90;;;;;;4999831;28;20117;-57
2021/11/28 09:31:26;;;;;;;10.43;6.93;;;4.60;99.90;;;;;;4997897;28;20058;-59
2021/11/28 09:33:51;;;;;;;15.60;7.80;;;4.70;99.90;;;;;;5005136;28;20029;-57
2021/11/28 09:36:17;;;;;;;11.15;7.13;;;4.70;99.90;;;;;;4992193;28;20045;-59
2021/11/28 09:38:44;;;;;;;10.20;6.55;;;4.50;99.90;;;;;;4998062;28;20502;-55
2021/11/28 09:41:12;;;;;;;8.88;5.47;;;4.40;99.90;;;;;;5001691;28;20116;-56
2021/11/28 09:43:41;;;;;;;9.43;6.40;;;4.40;99.90;;;;;;5004220;28;20033;-57
2021/11/28 09:46:09;;;;;;;11.90;6.10;;;4.50;99.90;;;;;;5000227;28;20045;-58
2021/11/28 09:48:35;;;;;;;13.90;6.82;;;4.50;99.90;;;;;;5000972;28;20096;-56
2021/11/28 09:51:03;;;;;;;11.23;6.93;;;4.60;99.90;;;;;;4998867;28;20034;-57
2021/11/28 09:53:31;;;;;;;16.88;9.60;;;4.70;99.90;;;;;;5002681;28;20464;-56
2021/11/28 09:55:57;;;;;;;11.95;8.05;;;4.90;99.90;;;;;;4998109;28;20034;-59
2021/11/28 09:58:24;;;;;;;13.35;6.43;;;4.90;99.90;;;;;;4996516;28;20125;-57
2021/11/28 10:00:50;;;;;;;13.77;6.25;;;5.00;99.90;;;;;;4995407;28;20108;-57
2021/11/28 10:03:15;;;;;;;11.73;6.75;;;5.00;99.90;;;;;;4981571;28;20125;-58
2021/11/28 10:05:41;;;;;;;12.63;6.47;;;5.00;99.90;;;;;;5001003;28;20036;-58
2021/11/28 10:08:08;;;;;;;13.90;7.97;;;4.90;99.90;;;;;;5000733;28;20023;-57
2021/11/28 10:10:34;;;;;;;8.90;6.43;;;5.00;99.90;;;;;;4998720;28;20076;-54
2021/11/28 10:13:00;;;;;;;17.60;7.25;;;4.90;99.90;;;;;;4990951;28;20252;-54
2021/11/28 10:15:28;;;;;;;15.60;6.28;;;4.90;99.90;;;;;;4996316;28;20026;-57
2021/11/28 10:17:54;;;;;;;15.77;7.53;;;4.90;99.90;;;;;;5008233;28;20026;-53
2021/11/28 10:20:23;;;;;;;13.35;6.18;;;5.00;99.90;;;;;;4995387;28;20072;-58
2021/11/28 10:22:50;;;;;;;36.20;15.52;;;4.90;99.90;;;;;;5004136;28;20026;-58
2021/11/28 10:25:18;;;;;;;18.73;9.55;;;4.80;99.90;;;;;;5000464;28;20053;-59
2021/11/28 10:27:45;;;;;;;9.85;6.22;;;4.80;99.90;;;;;;5007094;28;20040;-57
2021/11/28 10:30:19;;;;;;;10.90;5.88;;;4.70;99.90;;;;;;4999796;28;20034;-58
2021/11/28 10:32:49;;;;;;;9.82;5.13;;;4.60;99.90;;;;;;4998995;28;20103;-56
2021/11/28 10:35:15;;;;;;;11.80;6.30;;;4.50;99.90;;;;;;4997793;28;20033;-60
2021/11/28 10:37:44;;;;;;;22.45;11.80;;;4.40;99.90;;;;;;5001272;28;20049;-57
2021/11/28 10:40:12;;;;;;;14.15;8.20;;;4.50;99.90;;;;;;4999180;28;20032;-59
2021/11/28 10:42:38;;;;;;;13.35;7.30;;;4.50;99.90;;;;;;5003467;28;20029;-56
2021/11/28 10:45:14;;;;;;;11.20;6.32;;;4.50;99.90;;;;;;5000311;28;20065;-60
2021/11/28 10:47:44;;;;;;;12.60;7.57;;;4.40;99.90;;;;;;5004386;28;20053;-56
2021/11/28 10:50:30;;;;;;;15.13;6.95;;;4.50;99.90;;;;;;5007037;28;20462;-54
2021/11/28 10:53:10;;;;;;;13.07;6.85;;;4.60;99.90;;;;;;5002815;28;20395;-57
2021/11/28 10:55:39;;;;;;;9.60;5.75;;;4.50;99.90;;;;;;5003974;28;20057;-57
2021/11/28 10:58:24;;;;;;;12.20;7.25;;;4.50;99.90;;;;;;5004053;28;20041;-60
2021/11/28 11:00:50;;;;;;;13.73;7.55;;;4.60;99.90;;;;;;4996063;28;20040;-57
2021/11/28 11:03:39;;;;;;;14.27;7.55;;;4.70;99.90;;;;;;4987869;28;20025;-60
2021/11/28 11:06:25;;;;;;;13.77;6.85;;;4.70;99.90;;;;;;5004065;28;20037;-60
2021/11/28 11:08:54;;;;;;;12.57;6.03;;;4.70;99.90;;;;;;4998371;28;20065;-58
2021/11/28 11:11:20;;;;;;;11.90;7.10;;;4.70;99.90;;;;;;5004160;28;20021;-59
2021/11/28 11:14:00;;;;;;;11.30;7.35;;;4.60;99.90;;;;;;5001829;28;20021;-60
2021/11/28 11:16:29;;;;;;;13.18;6.30;;;4.60;99.90;;;;;;5003295;28;20038;-59
2021/11/28 11:19:16;;;;;;;10.35;5.75;;;4.70;99.90;;;;;;5006006;28;20041;-58
2021/11/28 11:22:00;;;;;;;12.73;6.90;;;4.70;99.90;;;;;;5009770;28;20030;-58
2021/11/28 11:24:26;;;;;;;11.23;7.93;;;4.70;99.90;;;;;;4999859;28;20030;-58
2021/11/28 11:26:51;;;;;;;10.82;6.97;;;4.60;99.90;;;;;;5009661;28;20037;-58
2021/11/28 11:29:17;;;;;;;13.85;7.47;;;4.60;99.90;;;;;;5002119;28;20061;-59
2021/11/28 11:31:53;;;;;;;12.52;6.07;;;4.60;99.90;;;;;;5004305;28;20473;-58
2021/11/28 11:34:30;;;;;;;13.98;8.13;;;4.60;99.90;;;;;;5010298;28;20033;-57
2021/11/28 11:37:02;;;;;;;24.92;10.52;;;4.60;99.90;;;;;;5000672;28;20019;-57
2021/11/28 11:39:30;;;;;;;16.67;7.85;;;4.60;99.90;;;;;;5003305;28;20026;-56
2021/11/28 11:41:56;;;;;;;15.63;7.40;;;4.70;99.90;;;;;;5002638;28;20025;-56
2021/11/28 11:44:26;;;;;;;15.68;7.10;;;4.70;99.90;;;;;;5003159;28;20125;-58
2021/11/28 11:46:53;;;;;;;11.27;5.68;;;4.70;99.90;;;;;;5010328;28;20495;-56
2021/11/28 11:49:19;;;;;;;11.20;7.65;;;4.70;99.90;;;;;;5004947;28;20017;-56
2021/11/28 11:51:47;;;;;;;14.05;7.32;;;4.70;99.90;;;;;;5005773;28;20022;-57
2021/11/28 11:54:59;;;;;;;12.35;6.35;;;4.70;99.90;;;;;;5015610;28;20056;-57
2021/11/28 11:57:31;;;;;;;11.88;6.75;;;4.70;99.90;;;;;;5010687;28;20121;-56
2021/11/28 12:00:06;;;;;;;9.40;6.20;;;4.80;99.90;;;;;;5015842;28;20021;-55
2021/11/28 12:02:36;;;;;;;16.88;9.32;;;4.80;99.90;;;;;;5012647;28;20579;-55
2021/11/28 12:05:23;;;;;;;11.07;6.10;;;4.90;99.90;;;;;;4982788;28;20042;-57
2021/11/28 12:07:54;;;;;;;10.63;5.60;;;4.90;99.90;;;;;;5004814;28;20054;-56
2021/11/28 12:10:32;;;;;;;14.93;6.85;;;4.90;99.90;;;;;;5016080;28;20101;-56
2021/11/28 12:13:00;;;;;;;12.13;6.88;;;5.00;99.90;;;;;;5015267;28;20479;-55
2021/11/28 12:15:34;;;;;;;13.82;6.93;;;5.00;99.90;;;;;;5020643;28;20022;-55
2021/11/28 12:18:01;;;;;;;12.10;6.50;;;5.10;99.90;;;;;;5005396;28;20425;-56
2021/11/28 12:20:44;;;;;;;12.23;6.57;;;5.10;99.90;;;;;;5004120;28;20070;-54
2021/11/28 12:23:47;;;;;;;11.75;7.45;;;5.10;99.90;;;;;;4999807;28;20044;-57
2021/11/28 12:26:28;;;;;;;13.07;6.88;;;5.10;99.90;;;;;;5008299;28;20030;-57
2021/11/28 12:28:54;;;;;;;13.63;7.60;;;5.00;99.90;;;;;;5014260;28;20510;-57
2021/11/28 12:31:27;;;;;;;14.25;7.75;;;5.10;99.90;;;;;;5017045;28;20036;-59
2021/11/28 12:34:02;;;;;;;24.95;12.75;;;5.10;99.90;;;;;;5006996;28;20049;-55
2021/11/28 12:36:34;;;;;;;12.38;8.18;;;5.20;99.90;;;;;;5002462;28;20026;-57
2021/11/28 12:39:17;;;;;;;17.65;7.57;;;5.30;99.90;;;;;;5003720;28;20031;-55
2021/11/28 12:42:08;;;;;;;14.00;7.45;;;5.30;99.90;;;;;;5001663;28;20030;-56
2021/11/28 12:44:54;;;;;;;10.45;6.97;;;5.30;99.90;;;;;;5013140;28;20025;-56
2021/11/28 12:47:25;;;;;;;10.30;7.05;;;5.20;99.90;;;;;;5017002;28;20459;-57
2021/11/28 12:49:58;;;;;;;12.07;6.97;;;5.10;99.90;;;;;;5024018;28;20278;-58
2021/11/28 12:52:24;;;;;;;11.20;6.43;;;5.00;99.90;;;;;;5015242;28;20034;-57
2021/11/28 12:55:05;;;;;;;15.57;6.97;;;4.80;99.90;;;;;;5004161;28;20018;-56
2021/11/28 12:57:35;;;;;;;11.43;6.80;;;4.70;99.90;;;;;;5004453;28;20540;-57
2021/11/28 13:00:25;;;;;;;13.77;6.75;;;4.70;99.90;;;;;;5010840;28;20026;-54